Home > Products > Valid Products > TAF

000
FTUS41 KPHI 302200 AAB
TAFPNE
TAF AMD
KPNE 302210Z 3022/3118 30018G28KT P6SM SCT025 BKN050
      TEMPO 3022/3023 1/2SM SN VV010
     FM302300 31020G36KT P6SM SCT030
     FM310800 32018G30KT P6SM SKC
     FM311400 31018G26KT P6SM SCT250=



000
FTUS41 KPHI 302100 AAA
TAFPNE
TAF AMD
KPNE 302159Z 3022/3118 30018G28KT P6SM SCT025 BKN050
      TEMPO 3022/3023 1SM -SN BKN025 OVC050
     FM302300 31020G36KT P6SM SCT030
     FM310800 32018G30KT P6SM SKC
     FM311400 31018G26KT P6SM SCT250=



000
FTUS41 KPHI 302100 AAB
TAFRDG
TAF AMD
KRDG 302104Z 3021/3118 32020G35KT P6SM SCT035
      TEMPO 3021/3023 1SM -SN BKN015
     FM310800 32017G30KT P6SM SKC
     FM311400 31018G32KT P6SM SCT250=



000
FTUS41 KPHI 302000 AAA
TAFRDG
TAF AMD
KRDG 302052Z 3021/3118 32020G35KT P6SM SCT035
      TEMPO 3021/3023 2SM -SN BKN030
     FM310800 32017G30KT P6SM SKC
     FM311400 31018G32KT P6SM SCT250=



000
FTUS41 KPHI 302000 AAB
TAFILG
TAF AMD
KILG 302051Z 3021/3118 31021G37KT P6SM SCT030
      TEMPO 3021/3023 5SM -SN BKN030
     FM310800 31017G31KT P6SM SKC
     FM311400 31018G33KT P6SM SCT250=



000
FTUS41 KPHI 302000 AAA
TAFPHL
TAF AMD
KPHL 302049Z 3021/3124 31021G38KT P6SM SCT030
      TEMPO 3021/3023 2SM -SN BKN030
     FM310800 31017G31KT P6SM SKC
     FM311400 31019G34KT P6SM SCT250
     FM312000 30015G25KT P6SM SCT250=



000
FTUS41 KPHI 301900 AAA
TAFILG
TAF AMD
KILG 301956Z 3020/3118 34016G28KT P6SM BKN035
      TEMPO 3020/3022 1SM -SN BKN025
     FM302200 31021G37KT P6SM SCT030
     FM310800 31017G31KT P6SM SKC
     FM311400 31018G33KT P6SM SCT250=



000
FTUS41 KPHI 301700
TAFPNE
TAF
KPNE 301735Z 3018/3118 32016G25KT P6SM BKN035
     FM302200 32020G37KT P6SM SCT030
     FM310800 32017G31KT P6SM SKC
     FM311400 31018G24KT P6SM SCT250=



000
FTUS41 KPHI 301700
TAFILG
TAF
KILG 301735Z 3018/3118 31016G28KT P6SM BKN035
     FM302200 31021G37KT P6SM SCT030
     FM310800 31017G31KT P6SM SKC
     FM311400 31018G33KT P6SM SCT250=



000
FTUS41 KPHI 301700
TAFRDG
TAF
KRDG 301735Z 3018/3118 32015G27KT P6SM BKN035
     FM302100 32020G37KT P6SM SCT035
     FM310800 32017G30KT P6SM SKC
     FM311400 31018G32KT P6SM SCT250=



000
FTUS41 KPHI 301700
TAFMIV
TAF
KMIV 301735Z 3018/3118 32016G28KT P6SM BKN035
     FM302200 31021G38KT P6SM SCT030
     FM310800 31016G29KT P6SM SKC
     FM311400 31018G33KT P6SM SCT250=



000
FTUS41 KPHI 301700
TAFTTN
TAF
KTTN 301735Z 3018/3118 32016G25KT P6SM BKN035
     FM302200 33019G37KT P6SM SCT030
     FM310800 32017G30KT P6SM SKC
     FM311400 32018G32KT P6SM SCT250=



000
FTUS41 KPHI 301700
TAFPHL
TAF
KPHL 301735Z 3018/3124 31016G27KT P6SM BKN035
     FM302200 31021G38KT P6SM SCT030
     FM310800 31017G31KT P6SM SKC
     FM311400 31019G34KT P6SM SCT250
     FM312000 30015G25KT P6SM SCT250=



000
FTUS41 KPHI 301700
TAFACY
TAF
KACY 301735Z 3018/3118 32015G28KT P6SM BKN035
     FM302200 31022G38KT P6SM SCT030
     FM310800 31017G30KT P6SM SKC
     FM311400 31019G34KT P6SM SCT250=



000
FTUS41 KPHI 301700
TAFABE
TAF
KABE 301735Z 3018/3118 31015G27KT P6SM BKN035
     FM302100 32022G39KT P6SM BKN035
     FM310800 32017G30KT P6SM SKC
     FM311400 31018G32KT P6SM SCT250=



000
FTUS41 KPHI 301600 AAB
TAFRDG
TAF AMD
KRDG 301630Z 3017/3112 32015G27KT P6SM BKN035
     FM302100 32020G37KT P6SM SCT035
     FM310800 32017G30KT P6SM SKC=



000
FTUS41 KPHI 301600 AAB
TAFABE
TAF AMD
KABE 301629Z 3016/3112 31015G27KT P6SM BKN035
     FM302100 32022G39KT P6SM BKN035
     FM310800 32017G30KT P6SM SKC=



000
FTUS41 KPHI 301600 AAB
TAFTTN
TAF AMD
KTTN 301629Z 3016/3112 32016G25KT P6SM BKN035
     FM302200 33019G37KT P6SM SCT030
     FM310800 32017G30KT P6SM SKC=



000
FTUS41 KPHI 301600 AAA
TAFMIV
TAF AMD
KMIV 301628Z 3016/3112 32016G28KT P6SM BKN035
     FM302200 31021G38KT P6SM SCT030
     FM310800 31016G29KT P6SM SKC=



000
FTUS41 KPHI 301600 AAA
TAFACY
TAF AMD
KACY 301628Z 3016/3112 32015G28KT P6SM BKN035
     FM302200 31022G38KT P6SM SCT030
     FM310800 31017G30KT P6SM SKC=



000
FTUS41 KPHI 301600 AAB
TAFPNE
TAF AMD
KPNE 301627Z 3016/3112 32016G25KT P6SM BKN035
     FM302200 32020G37KT P6SM SCT030
     FM310800 32017G31KT P6SM SKC=



000
FTUS41 KPHI 301600 AAB
TAFILG
TAF AMD
KILG 301627Z 3016/3112 31016G28KT P6SM BKN035
     FM302200 31021G37KT P6SM SCT030
     FM310800 31017G31KT P6SM SKC=



000
FTUS41 KPHI 301600 AAC
TAFPHL
TAF AMD
KPHL 301626Z 3016/3118 31016G27KT P6SM BKN035
     FM302200 31021G38KT P6SM SCT030
     FM310800 31017G31KT P6SM SKC=



000
FTUS41 KPHI 301400 AAB
TAFPHL
TAF AMD
KPHL 301431Z 3015/3118 30012G18KT P6SM BKN080 OVC120
     FM301600 31016G27KT P6SM BKN035
     FM302200 31021G38KT P6SM SCT030
     FM310800 31017G31KT P6SM SKC=



000
FTUS41 KPHI 301300 AAA
TAFILG
TAF AMD
KILG 301326Z 3013/3112 30012G18KT P6SM SCT020 OVC050
      TEMPO 3013/3015 4SM -SN OVC035
     FM301500 31016G26KT P6SM BKN035
     FM302200 31021G37KT P6SM SCT030
     FM310800 31017G31KT P6SM SKC=



000
FTUS41 KPHI 301300 AAA
TAFTTN
TAF AMD
KTTN 301325Z 3013/3112 31012G19KT P6SM SCT030 OVC050
      TEMPO 3013/3015 4SM -SN OVC035
     FM301500 32016G25KT P6SM BKN035
     FM302200 33019G37KT P6SM SCT030
     FM310800 32017G30KT P6SM SKC=



000
FTUS41 KPHI 301300 AAA
TAFPNE
TAF AMD
KPNE 301325Z 3013/3112 30012G18KT P6SM OVC050
      TEMPO 3013/3015 4SM -SN OVC035
     FM301500 32016G25KT P6SM BKN035
     FM302200 32020G37KT P6SM SCT030
     FM310800 32017G31KT P6SM SKC=



000
FTUS41 KPHI 301300 AAA
TAFPHL
TAF AMD
KPHL 301320Z 3013/3118 29012G18KT P6SM OVC050
      TEMPO 3013/3015 4SM -SN OVC035
     FM301500 31016G27KT P6SM BKN035
     FM302200 31021G38KT P6SM SCT030
     FM310800 31017G31KT P6SM SKC=



000
FTUS41 KPHI 301300 AAA
TAFABE
TAF AMD
KABE 301300Z 3013/3112 26005KT 5SM -SN BR OVC035
     FM301400 30012G19KT 6SM -SN SCT025 OVC035
     FM301600 31015G25KT P6SM BKN035
     FM302100 32022G39KT P6SM BKN035
     FM310800 32017G30KT P6SM SKC=



000
FTUS41 KPHI 301200 AAA
TAFRDG
TAF AMD
KRDG 301258Z 3013/3112 27006KT 6SM -SN BR OVC050
      TEMPO 3013/3014 2SM -SN OVC020
     FM301500 31015G26KT P6SM BKN035
     FM302100 32020G37KT P6SM SCT035
     FM310800 32017G30KT P6SM SKC=



000
FTUS41 KPHI 301100
TAFABE
TAF
KABE 301136Z 3012/3112 26005KT 5SM -SN BR OVC040
     FM301230 29009KT 2SM -SN BKN025
     FM301330 30012G19KT 6SM -SN SCT025 OVC035
     FM301600 31015G25KT P6SM BKN035
     FM302100 32022G39KT P6SM BKN035
     FM310800 32017G30KT P6SM SKC=



000
FTUS41 KPHI 301100
TAFILG
TAF
KILG 301136Z 3012/3112 30012G18KT P6SM SCT020 OVC050
     FM301600 31016G26KT P6SM BKN035
     FM302200 31021G37KT P6SM SCT030
     FM310800 31017G31KT P6SM SKC=



000
FTUS41 KPHI 301100
TAFRDG
TAF
KRDG 301136Z 3012/3112 31006KT 6SM -SN BR OVC050
      TEMPO 3012/3013 3SM -SN BKN025
     FM301500 31015G26KT P6SM BKN035
     FM302100 32020G37KT P6SM SCT035
     FM310800 32017G30KT P6SM SKC=



000
FTUS41 KPHI 301100
TAFACY
TAF
KACY 301136Z 3012/3112 28012G18KT P6SM OVC040
      TEMPO 3012/3013 6SM -SN
     FM301600 31015G25KT P6SM BKN035
     FM302200 31022G38KT P6SM SCT030
     FM310800 31017G30KT P6SM SKC=



000
FTUS41 KPHI 301100
TAFTTN
TAF
KTTN 301136Z 3012/3112 30006KT 6SM -SN OVC040
     FM301300 31012G19KT P6SM SCT030 OVC050
     FM301600 32016G25KT P6SM BKN035
     FM302200 33019G37KT P6SM SCT030
     FM310800 32017G30KT P6SM SKC=



000
FTUS41 KPHI 301100
TAFPHL
TAF
KPHL 301136Z 3012/3118 29012G18KT P6SM OVC050
     FM301600 31016G27KT P6SM BKN035
     FM302200 31021G38KT P6SM SCT030
     FM310800 31017G31KT P6SM SKC=



000
FTUS41 KPHI 301100
TAFMIV
TAF
KMIV 301136Z 3012/3112 29012G18KT P6SM OVC050
     FM301600 30016G26KT P6SM BKN035
     FM302200 31021G38KT P6SM SCT030
     FM310800 31016G29KT P6SM SKC=



000
FTUS41 KPHI 301100
TAFPNE
TAF
KPNE 301136Z 3012/3112 30012G18KT P6SM OVC050
     FM301600 32016G25KT P6SM BKN035
     FM302200 32020G37KT P6SM SCT030
     FM310800 32017G31KT P6SM SKC=



000
FTUS41 KPHI 300900 AAA
TAFABE
TAF AMD
KABE 300951Z 3010/3106 00000KT 6SM -SN FEW015 OVC029
     FM301100 29006KT 6SM -SN BR OVC035
      TEMPO 3011/3014 5SM -SN BKN025
     FM301600 31015G27KT P6SM BKN035
     FM302100 32021G38KT P6SM BKN035=



000
FTUS41 KPHI 300900 AAA
TAFRDG
TAF AMD
KRDG 300943Z 3010/3106 00000KT 6SM -SN BR OVC030
     FM301030 31006KT 6SM -SN BR OVC035
      TEMPO 3011/3013 5SM -SN BKN025
     FM301500 31015G28KT P6SM BKN035
     FM302100 32020G37KT P6SM SCT035=



000
FTUS41 KPHI 300900 AAA
TAFPHL
TAF AMD
KPHL 300922Z 3009/3112 27005KT P6SM OVC060
     FM301200 29013KT P6SM OVC050
      TEMPO 3012/3015 6SM -SN SCT025 BKN035
     FM301600 31017G29KT P6SM BKN035
     FM302200 31021G38KT P6SM SCT030
     FM310900 30018G30KT P6SM SKC=



000
FTUS41 KPHI 300500 RRA
TAFACY
TAF
KACY 300548Z 3006/3106 18008KT P6SM -RA OVC050
     FM300800 21008KT P6SM OVC040
      TEMPO 3011/3013 5SM -SN BKN030
     FM301300 30014KT P6SM SCT020 OVC050
     FM301600 31017G28KT P6SM BKN035
     FM302200 31020G34KT P6SM SCT030=



000
FTUS41 KPHI 300500 RRA
TAFMIV
TAF
KMIV 300548Z 3006/3106 VRB05KT P6SM -RA OVC050
     FM300800 VRB05KT P6SM OVC040
      TEMPO 3010/3013 5SM -SN BKN030
     FM301300 30013KT P6SM SCT020 OVC050
     FM301600 31016G27KT P6SM BKN035
     FM302200 31020G34KT P6SM SCT030=



000
FTUS41 KPHI 300500 RRA
TAFRDG
TAF
KRDG 300548Z 3006/3106 VRB03KT 6SM -SN FEW015 OVC040
     FM301200 30009KT P6SM SCT020 OVC050
      TEMPO 3012/3015 5SM -SN BKN020
     FM301500 31015G28KT P6SM BKN035
     FM302100 32020G37KT P6SM SCT035=



000
FTUS41 KPHI 300500 RRA
TAFPNE
TAF
KPNE 300548Z 3006/3106 VRB04KT P6SM OVC045
     FM300800 VRB03KT P6SM OVC050
      TEMPO 3010/3013 5SM -SN BKN030
     FM301300 29011KT P6SM SCT020 OVC050
     FM301600 32016G29KT P6SM BKN035
     FM302200 32020G35KT P6SM SCT030=



000
FTUS41 KPHI 300500 RRA
TAFTTN
TAF
KTTN 300548Z 3006/3106 VRB04KT 6SM -SN FEW015 OVC040
     FM300800 VRB04KT P6SM OVC050
      TEMPO 3010/3013 5SM -SN BKN030
     FM301300 30011KT P6SM SCT020 OVC050
     FM301600 32016G29KT P6SM BKN035
     FM302200 33019G36KT P6SM SCT030=



000
FTUS41 KPHI 300500 RRA
TAFPHL
TAF
KPHL 300548Z 3006/3112 VRB04KT 6SM -SN OVC050
     FM300800 VRB05KT P6SM OVC040
      TEMPO 3010/3013 5SM -SN BKN030
     FM301300 29013KT P6SM SCT020 OVC050
     FM301600 31017G29KT P6SM BKN035
     FM302200 31021G35KT P6SM SCT030
     FM310700 30016G28KT P6SM SKC=



000
FTUS41 KPHI 300500 RRA
TAFILG
TAF
KILG 300548Z 3006/3106 VRB04KT P6SM SCT040 OVC080
     FM300800 VRB03KT P6SM OVC050
      TEMPO 3009/3012 6SM -SN BKN030
     FM301200 28010KT P6SM SCT020 OVC050
     FM301600 31016G29KT P6SM BKN035
     FM302200 31022G36KT P6SM SCT030=



000
FTUS41 KPHI 300500 RRA
TAFABE
TAF
KABE 300548Z 3006/3106 VRB03KT 6SM -SN FEW015 OVC040
      TEMPO 3006/3010 3SM -SN BKN015
     FM301200 30009KT P6SM SCT020 OVC050
      TEMPO 3013/3016 5SM -SN BKN020
     FM301600 31015G27KT P6SM BKN030
     FM302100 32019G36KT P6SM BKN035=



000
FTUS41 KPHI 300200 AAC
TAFRDG
TAF AMD
KRDG 300217Z 3002/3024 18006KT P6SM SCT015 OVC040
      TEMPO 3002/3006 3SM -SN OVC015
     FM300600 21008KT 4SM -SHSN OVC015
     FM301000 29010KT P6SM SCT015 OVC035
     FM301400 31018G35KT P6SM BKN035=



000
FTUS41 KPHI 300200 AAB
TAFABE
TAF AMD
KABE 300217Z 3002/3024 17004KT 4SM -SN OVC025
      TEMPO 3002/3004 2SM -SN OVC015
     FM300400 19006KT 2SM -SN OVC010
     FM300900 23008KT 4SM -SHSN OVC015
     FM301200 29010KT P6SM -SHSN SCT015 OVC035
     FM301400 31018G32KT P6SM BKN035=



000
FTUS41 KPHI 300200 AAB
TAFPNE
TAF AMD
KPNE 300213Z 3002/3024 21006KT P6SM OVC040
      TEMPO 3002/3004 -SHSN
     FM300800 22006KT 5SM -SHSN OVC015
     FM301200 29010KT P6SM SCT015 OVC040
     FM301400 32018G31KT P6SM BKN040=



000
FTUS41 KPHI 300200 AAB
TAFTTN
TAF AMD
KTTN 300213Z 3002/3024 21006KT P6SM OVC040
      TEMPO 3002/3005 4SM -SN OVC015
     FM300900 24006KT 3SM -SHSN OVC015
     FM301200 29010KT P6SM SCT015 OVC035
     FM301400 33015G30KT P6SM BKN035=



000
FTUS41 KPHI 300200 AAB
TAFMIV
TAF AMD
KMIV 300209Z 3002/3024 20004KT P6SM OVC040
      TEMPO 3002/3003 -SHRASN
     FM300900 24004KT 5SM -SHSN OVC025
     FM301200 29008KT P6SM SCT015 OVC040
     FM301400 31016G28KT P6SM BKN040=



000
FTUS41 KPHI 300200 AAB
TAFACY
TAF AMD
KACY 300209Z 3002/3024 21006KT P6SM OVC040
      TEMPO 3002/3004 -SHRASN
     FM301000 23006KT 5SM -SHSN OVC025
     FM301200 29011KT P6SM SCT015 OVC040
     FM301400 31020G34KT P6SM BKN040=



000
FTUS41 KPHI 300200 AAB
TAFILG
TAF AMD
KILG 300206Z 3002/3024 19006KT P6SM OVC040
     FM300800 23008KT 5SM -SHSN OVC015
     FM301200 29010KT P6SM SCT015 OVC040
     FM301400 31018G32KT P6SM BKN040=



000
FTUS41 KPHI 300200 AAB
TAFPHL
TAF AMD
KPHL 300206Z 3002/3106 21006KT P6SM OVC040
      TEMPO 3002/3003 -SHSN
     FM300800 24008KT 5SM -SHSN OVC015
     FM301200 29010KT P6SM SCT015 OVC040
     FM301400 31020G34KT P6SM BKN040
     FM310000 31020G34KT P6SM SCT040=



000
FTUS41 KPHI 300100 AAB
TAFRDG
TAF AMD
KRDG 300124Z 3001/3024 13004KT P6SM SCT015 OVC035
      TEMPO 3001/3003 -SHSN BKN015 OVC035
     FM300300 17006KT P6SM OVC040
     FM300700 19008KT 4SM -SHSN OVC015
     FM300900 29010KT P6SM SCT015 OVC035
     FM301400 31018G35KT P6SM BKN035=



000
FTUS41 KPHI 300100 AAA
TAFRDG
TAF AMD
KRDG 300103Z 3001/3024 13004KT P6SM -SHSN SCT015 OVC035
     FM300200 17006KT P6SM OVC040
     FM300700 19008KT 4SM -SHSN OVC015
     FM300900 29010KT P6SM SCT015 OVC035
     FM301400 31018G35KT P6SM BKN035=



000
FTUS41 KPHI 300000 AAA
TAFABE
TAF AMD
KABE 300026Z 3000/3024 15004KT P6SM -SHSN OVC040
      TEMPO 3000/3002 2SM -SN OVC015
     FM300300 16006KT P6SM OVC040
     FM300700 17008KT 3SM -SHSN OVC015
     FM300900 29010KT P6SM SCT015 OVC035
     FM301400 31018G32KT P6SM BKN035=



000
FTUS41 KPHI 300000 AAA
TAFACY
TAF AMD
KACY 300024Z 3000/3024 17008KT P6SM SCT040 OVC070
      TEMPO 3001/3003 5SM -SHRASN BR OVC040
     FM300400 17006KT P6SM OVC040
     FM301000 22004KT 6SM -SHSN OVC025
     FM301200 29011KT P6SM SCT015 OVC040
     FM301400 31020G34KT P6SM BKN040=



000
FTUS41 KPHI 300000 AAA
TAFMIV
TAF AMD
KMIV 300024Z 3000/3024 16004KT P6SM SCT040 OVC070
      TEMPO 3000/3002 5SM -SHRASN BR OVC040
     FM300300 17006KT P6SM OVC040
     FM301000 22004KT 6SM -SHSN OVC025
     FM301200 29008KT P6SM SCT015 OVC040
     FM301400 31016G28KT P6SM BKN040=



000
FTUS41 KPHI 300000 AAA
TAFPNE
TAF AMD
KPNE 300022Z 3000/3024 16006KT P6SM -SHSN OVC040
      TEMPO 3000/3002 3SM -SN OVC020
     FM300300 18006KT P6SM OVC040
     FM300800 22006KT 5SM -SHSN OVC015
     FM301000 29010KT P6SM SCT015 OVC040
     FM301400 32018G31KT P6SM BKN040=



000
FTUS41 KPHI 300000 AAA
TAFTTN
TAF AMD
KTTN 300022Z 3000/3024 16006KT P6SM OVC070
     FM300100 16004KT P6SM -SHSN OVC040
      TEMPO 3001/3003 3SM -SN OVC015
     FM300400 18006KT P6SM OVC040
     FM300700 22006KT 3SM -SHSN OVC025
     FM300900 29010KT P6SM SCT015 OVC035
     FM301400 33015G30KT P6SM BKN035=



000
FTUS41 KPHI 300000 AAA
TAFILG
TAF AMD
KILG 300021Z 3000/3024 17008KT P6SM -SHSN OVC040
      TEMPO 3000/3001 4SM -SN OVC025
     FM300200 17008KT P6SM OVC040
     FM300900 22006KT 6SM -SHSN OVC025
     FM301100 29010KT P6SM SCT015 OVC040
     FM301400 31018G32KT P6SM BKN040=



000
FTUS41 KPHI 300000 AAA
TAFPHL
TAF AMD
KPHL 300021Z 3000/3106 18006KT P6SM -SHSN OVC040
      TEMPO 3000/3002 3SM -SN OVC020
     FM300300 18008KT P6SM OVC040
     FM300800 22006KT 6SM -SHSN OVC015
     FM301000 29010KT P6SM SCT015 OVC040
     FM301400 31020G34KT P6SM BKN040
     FM310000 31020G34KT P6SM SCT040=



000
FTUS41 KPHI 292300
TAFPHL
TAF
KPHL 292323Z 3000/3106 18006KT 4SM -SN OVC020
      TEMPO 3000/3002 1SM -SN OVC010
     FM300300 18008KT P6SM OVC040
     FM300800 22006KT 6SM -SHSN OVC015
     FM301000 29010KT P6SM SCT015 OVC040
     FM301400 31020G34KT P6SM BKN040
     FM310000 31020G34KT P6SM SCT040=



000
FTUS41 KPHI 292300
TAFRDG
TAF
KRDG 292323Z 3000/3024 17006KT 3SM -SN OVC015
      TEMPO 3000/3001 3/4SM -SN OVC008
     FM300200 17006KT P6SM OVC040
     FM300700 19008KT 4SM -SHSN OVC015
     FM300900 29010KT P6SM SCT015 OVC035
     FM301400 31018G35KT P6SM BKN035=



000
FTUS41 KPHI 292300
TAFILG
TAF
KILG 292323Z 3000/3024 16008KT 4SM -SN OVC030
      TEMPO 3000/3001 2SM -SN OVC015
     FM300200 17008KT P6SM OVC040
     FM300900 22006KT 6SM -SHSN OVC025
     FM301100 29010KT P6SM SCT015 OVC040
     FM301400 31018G32KT P6SM BKN040=



000
FTUS41 KPHI 292300
TAFMIV
TAF
KMIV 292323Z 3000/3024 16004KT 5SM -SNRA BR OVC025
     FM300300 17006KT P6SM OVC040
     FM301000 22004KT 6SM -SHSN OVC025
     FM301200 29008KT P6SM SCT015 OVC040
     FM301400 31016G28KT P6SM BKN040=



000
FTUS41 KPHI 292300
TAFTTN
TAF
KTTN 292323Z 3000/3024 15006KT P6SM OVC070
      TEMPO 3000/3001 -SNPL
     FM300100 16004KT 3SM -SN OVC015
      TEMPO 3001/3003 3/4SM -SN OVC008
     FM300400 18006KT P6SM OVC040
     FM300700 22006KT 3SM -SHSN OVC025
     FM300900 29010KT P6SM SCT015 OVC035
     FM301400 33015G30KT P6SM BKN035=



000
FTUS41 KPHI 292300
TAFABE
TAF
KABE 292323Z 3000/3024 12006KT 3SM -SN OVC015
      TEMPO 3000/3002 3/4SM -SN OVC008
     FM300300 16006KT P6SM OVC040
     FM300700 17008KT 3SM -SHSN OVC015
     FM300900 29010KT P6SM SCT015 OVC035
     FM301400 31018G32KT P6SM BKN035=



000
FTUS41 KPHI 292300
TAFPNE
TAF
KPNE 292323Z 3000/3024 16004KT 3SM -SN OVC020
      TEMPO 3000/3002 1SM -SN OVC010
     FM300300 18006KT P6SM OVC040
     FM300800 22006KT 5SM -SHSN OVC015
     FM301000 29010KT P6SM SCT015 OVC040
     FM301400 32018G31KT P6SM BKN040=



000
FTUS41 KPHI 292300
TAFACY
TAF
KACY 292323Z 3000/3024 16008KT P6SM OVC100
     FM300100 15006KT 5SM -RA BR OVC025
     FM300400 17006KT P6SM OVC040
     FM301000 22004KT 6SM -SHSN OVC025
     FM301200 29011KT P6SM SCT015 OVC040
     FM301400 31020G34KT P6SM BKN040=



000
FTUS41 KPHI 292200 AAA
TAFMIV
TAF AMD
KMIV 292228Z 2922/3018 15006KT P6SM OVC100
     FM300000 14004KT 5SM -SNRA BR OVC020
     FM300300 17006KT P6SM OVC040
     FM301000 22004KT 6SM -SHSN OVC025
     FM301200 29008KT P6SM SCT015 OVC040
     FM301400 31016G28KT P6SM BKN040=



000
FTUS41 KPHI 292200 AAA
TAFACY
TAF AMD
KACY 292228Z 2922/3018 17008KT P6SM OVC100
     FM300100 14006KT 5SM -RA BR OVC020
     FM300400 17006KT P6SM OVC040
     FM301000 22004KT 6SM -SHSN OVC025
     FM301200 29011KT P6SM SCT015 OVC040
     FM301400 31019G33KT P6SM BKN040=



000
FTUS41 KPHI 292200 AAA
TAFABE
TAF AMD
KABE 292226Z 2922/3018 15006KT P6SM OVC070
      TEMPO 2922/2924 -SNPL
     FM300000 15004KT 2SM -SN OVC015
      TEMPO 3000/3002 3/4SM -SN OVC005
     FM300300 16006KT P6SM OVC040
     FM300700 17008KT 3SM -SHSN OVC015
     FM300900 29010KT P6SM SCT015 OVC035
     FM301400 31018G32KT P6SM BKN035=



000
FTUS41 KPHI 292200 AAA
TAFRDG
TAF AMD
KRDG 292226Z 2922/3018 17006KT P6SM OVC070
      TEMPO 2922/2923 -SNPL
     FM292300 17006KT 2SM -SN OVC015
      TEMPO 2923/3001 3/4SM -SN OVC008
     FM300200 17006KT P6SM OVC040
     FM300700 19008KT 4SM -SHSN OVC015
     FM300900 29010KT P6SM SCT015 OVC035
     FM301400 31018G35KT P6SM BKN035=



000
FTUS41 KPHI 292200 AAA
TAFTTN
TAF AMD
KTTN 292224Z 2922/3018 15006KT P6SM OVC070
      TEMPO 2923/3001 -SNPL
     FM300100 16004KT 2SM -SN OVC015
      TEMPO 3001/3003 3/4SM -SN OVC005
     FM300400 18006KT P6SM OVC040
     FM300700 22006KT 3SM -SHSN OVC025
     FM300900 29010KT P6SM SCT015 OVC035
     FM301400 33015G30KT P6SM BKN035=



000
FTUS41 KPHI 292200 AAA
TAFPNE
TAF AMD
KPNE 292224Z 2922/3018 15006KT P6SM OVC070
      TEMPO 2922/2924 -SNPL
     FM300000 16004KT 3SM -SN OVC020
      TEMPO 3000/3002 1SM -SN OVC010
     FM300300 18006KT P6SM OVC040
     FM300800 22006KT 5SM -SHSN OVC015
     FM301000 29010KT P6SM SCT015 OVC040
     FM301400 32018G31KT P6SM BKN040=



000
FTUS41 KPHI 292200 AAB
TAFPHL
TAF AMD
KPHL 292221Z 2922/3024 18008KT P6SM OVC070
      TEMPO 2922/2924 -SNPL
     FM300000 18006KT 4SM -SN OVC020
      TEMPO 3000/3002 1SM -SN OVC010
     FM300300 18008KT P6SM OVC040
     FM300800 22006KT 6SM -SHSN OVC015
     FM301000 29010KT P6SM SCT015 OVC040
     FM301400 31020G34KT P6SM BKN040=



000
FTUS41 KPHI 292200 AAA
TAFILG
TAF AMD
KILG 292221Z 2922/3018 16010KT P6SM OVC070
      TEMPO 2922/2923 -SNPL
     FM292300 16008KT 4SM -SN OVC030
      TEMPO 2923/3001 2SM -SN OVC015
     FM300200 17008KT P6SM OVC040
     FM300900 22006KT 6SM -SHSN OVC025
     FM301100 29010KT P6SM SCT015 OVC040
     FM301400 31018G32KT P6SM BKN040=



000
FTUS41 KPHI 292000 AAA
TAFPHL
TAF AMD
KPHL 292058Z 2921/3024 16007KT P6SM OVC070
     FM292300 16007KT 3SM -SNPL OVC040
     FM300000 17007KT 1SM -SN OVC020
     FM300200 18008KT P6SM OVC040
     FM300800 22006KT 6SM -SHSN OVC015
     FM301000 29010KT P6SM SCT015 OVC040
     FM301400 31020G34KT P6SM BKN040=



000
FTUS41 KPHI 291700
TAFPHL
TAF
KPHL 291720Z 2918/3024 16007KT P6SM OVC100
     FM300000 16007KT 3SM -SN OVC040
     FM300100 17007KT 1SM -SN OVC020
     FM300300 18008KT P6SM OVC040
     FM300800 22006KT 6SM -SHSN OVC015
     FM301000 29010KT P6SM SCT015 OVC040
     FM301400 31020G34KT P6SM BKN040=



000
FTUS41 KPHI 291700
TAFRDG
TAF
KRDG 291720Z 2918/3018 14005KT P6SM OVC100
     FM292200 15005KT 3SM -SN OVC040
     FM292300 16007KT 1SM -SN OVC020
     FM300300 17008KT P6SM OVC040
     FM300700 19009KT 4SM -SHSN OVC015
     FM300900 29010KT P6SM SCT015 OVC035
     FM301400 31018G35KT P6SM BKN035=



000
FTUS41 KPHI 291700
TAFILG
TAF
KILG 291720Z 2918/3018 15007KT P6SM OVC100
     FM300000 15007KT 5SM -SN OVC040
     FM300100 16007KT 2SM -SN OVC020
     FM300300 17008KT P6SM OVC040
     FM300900 22006KT 6SM -SHSN OVC025
     FM301100 29010KT P6SM SCT015 OVC040
     FM301400 31018G32KT P6SM BKN040=



000
FTUS41 KPHI 291700
TAFABE
TAF
KABE 291720Z 2918/3018 12004KT P6SM OVC100
     FM292300 15004KT 3SM -SN OVC040
     FM300000 15006KT 3/4SM -SN OVC015
     FM300300 16007KT P6SM OVC040
     FM300700 17009KT 3SM -SHSN OVC015
     FM300900 29010KT P6SM SCT015 OVC035
     FM301400 31018G32KT P6SM BKN035=



000
FTUS41 KPHI 291700
TAFMIV
TAF
KMIV 291720Z 2918/3018 15006KT P6SM OVC100
     FM300100 14005KT 5SM -SNRA OVC020
     FM300300 17006KT P6SM OVC040
     FM301000 22004KT 6SM -SHSN OVC025
     FM301200 29008KT P6SM SCT015 OVC040
     FM301400 31016G28KT P6SM BKN040=



000
FTUS41 KPHI 291700
TAFPNE
TAF
KPNE 291720Z 2918/3018 13005KT P6SM OVC100
     FM300000 16004KT 3SM -SN OVC040
     FM300100 17006KT 1SM -SN OVC020
     FM300300 18006KT P6SM OVC040
     FM300800 22006KT 5SM -SHSN OVC015
     FM301000 29010KT P6SM SCT015 OVC040
     FM301400 32018G31KT P6SM BKN040=



000
FTUS41 KPHI 291700
TAFTTN
TAF
KTTN 291720Z 2918/3018 15006KT P6SM OVC100
     FM300000 16004KT 3SM -SN OVC040
     FM300100 17006KT 3/4SM -SN OVC015
     FM300400 18006KT P6SM OVC040
     FM300700 22006KT 3SM -SHSN OVC025
     FM300900 29010KT P6SM SCT015 OVC035
     FM301400 33015G30KT P6SM BKN035=



000
FTUS41 KPHI 291700
TAFACY
TAF
KACY 291720Z 2918/3018 15007KT P6SM OVC100
     FM300100 14005KT 5SM -RA OVC020
     FM300300 17006KT P6SM OVC040
     FM301000 22004KT 6SM -SHSN OVC025
     FM301200 29011KT P6SM SCT015 OVC040
     FM301400 31019G33KT P6SM BKN040=



000
FTUS41 KPHI 291500 AAA
TAFPHL
TAF AMD
KPHL 291516Z 2915/3018 10007KT P6SM SCT100 OVC250
     FM291700 15007KT P6SM BKN100
     FM292300 16007KT 4SM -SN OVC040
     FM300000 17008KT 1 1/2SM -SN FEW010 OVC020
     FM300300 18005KT 5SM -SN FEW010 OVC025
     FM300400 20007KT P6SM FEW009 OVC025
     FM301000 27010KT P6SM SCT015 OVC040
     FM301400 30014G25KT P6SM SCT040 SCT080=



000
FTUS41 KPHI 291100 RRA
TAFPHL
TAF
KPHL 291143Z 2912/3018 VRB04KT P6SM SKC
     FM291700 15007KT P6SM BKN100
     FM300000 16007KT 4SM -SN OVC040
     FM300030 17008KT 1 1/2SM -SN FEW010 OVC020
     FM300300 18005KT 5SM -SHSN FEW010 OVC025
     FM300400 20007KT P6SM FEW009 OVC025
     FM301000 27010KT P6SM SCT015 OVC040
     FM301400 30014G25KT P6SM SCT040 SCT080=



000
FTUS41 KPHI 291100 RRA
TAFRDG
TAF
KRDG 291143Z 2912/3012 00000KT P6SM SKC
     FM291600 14005KT P6SM BKN100
     FM292200 16004KT 3SM -SN OVC040
     FM292230 16005KT 1SM -SN SCT009 OVC020
     FM300300 17004KT 3SM -SHSN OVC020
     FM300500 19004KT 5SM BR OVC015
     FM300900 29010KT P6SM SCT015 OVC040=



000
FTUS41 KPHI 291100 RRA
TAFACY
TAF
KACY 291143Z 2912/3012 VRB03KT P6SM SKC
     FM291800 15006KT P6SM BKN100
     FM300100 17008KT 3SM -SNRA SCT020 OVC035
     FM300300 19010KT P6SM FEW020 OVC035
     FM301100 26012KT P6SM SCT020 OVC040=



000
FTUS41 KPHI 291100 RRA
TAFTTN
TAF
KTTN 291143Z 2912/3012 VRB03KT P6SM SKC
     FM291700 15006KT P6SM BKN100
     FM300000 16006KT 3SM -SN OVC040
     FM300030 17006KT 1 1/2SM -SN SCT009 OVC015
     FM300400 19005KT 5SM -SHSN FEW010 OVC025=



000
FTUS41 KPHI 291100 RRA
TAFILG
TAF
KILG 291143Z 2912/3012 VRB03KT P6SM SKC
     FM291700 15008KT P6SM BKN100
     FM292330 17008KT 5SM -SNPL OVC040
     FM300000 17007KT 2SM -SNPL SCT015 OVC025
     FM300200 19007KT P6SM FEW015 OVC035
     FM301000 28011KT P6SM SCT015 OVC040=



000
FTUS41 KPHI 291100 RRA
TAFABE
TAF
KABE 291143Z 2912/3012 VRB03KT P6SM SKC
     FM291600 12006KT P6SM BKN100
     FM292300 14004KT 3SM -SN OVC040
     FM292330 16006KT 1SM -SN SCT009 OVC015
     FM300500 17004KT 3SM -SHSN OVC020
     FM300700 19004KT 5SM BR OVC020
     FM300900 29010KT P6SM SCT015 OVC040=



000
FTUS41 KPHI 291100 RRA
TAFMIV
TAF
KMIV 291143Z 2912/3012 VRB03KT P6SM SKC
     FM291800 15004KT P6SM BKN100
     FM300000 16006KT 3SM -SNRA SCT020 OVC035
     FM300200 19006KT P6SM FEW020 OVC035
     FM301000 27011KT P6SM SCT020 OVC040=



000
FTUS41 KPHI 291100 RRA
TAFPNE
TAF
KPNE 291143Z 2912/3012 VRB03KT P6SM SKC
     FM291700 15006KT P6SM BKN100
     FM300000 16007KT 4SM -SN OVC040
     FM300030 17006KT 1 1/2SM -SN FEW010 OVC020
     FM300300 18005KT 5SM -SHSN FEW010 OVC025
     FM300400 20005KT P6SM FEW009 OVC025
     FM301000 27009KT P6SM SCT015 OVC040=



000
FTUS41 KPHI 290900 AAA
TAFPHL
TAF AMD
KPHL 290913Z 2909/3012 VRB03KT P6SM SKC
     FM291700 15007KT P6SM BKN100
     FM300000 17008KT 4SM -SN OVC040
     FM300100 18007KT 2SM -SN FEW010 OVC020
     FM300400 20006KT 5SM -SHSN FEW010 OVC025
     FM300600 25009KT P6SM SCT025 OVC060=



000
FTUS41 KPHI 290500 RRA
TAFABE
TAF
KABE 290546Z 2906/3006 VRB03KT P6SM SKC
     FM291600 12006KT P6SM BKN100
     FM292300 14004KT 3SM -SN OVC040
     FM300000 16006KT 1SM -SN SCT009 OVC015
     FM300500 17004KT 5SM -SHSN SCT020 OVC035=



000
FTUS41 KPHI 290500 RRA
TAFPNE
TAF
KPNE 290546Z 2906/3006 33007KT P6SM SKC
     FM290800 VRB03KT P6SM SKC
     FM291700 15006KT P6SM BKN100
     FM300100 16007KT 4SM -SN OVC040
     FM300200 17006KT 2SM -SN FEW010 OVC020
     FM300500 20005KT 5SM -SHSN FEW010 OVC025=



000
FTUS41 KPHI 290500 RRA
TAFMIV
TAF
KMIV 290546Z 2906/3006 VRB03KT P6SM SKC
     FM291800 15004KT P6SM BKN100
     FM300200 16006KT 4SM -SNRA SCT020 OVC035
     FM300500 17005KT P6SM FEW020 OVC035=



000
FTUS41 KPHI 290500 RRA
TAFRDG
TAF
KRDG 290546Z 2906/3006 VRB03KT P6SM SKC
     FM291600 15004KT P6SM BKN100
     FM292200 16004KT 3SM -SN OVC040
     FM292300 17005KT 1 1/2SM -SN SCT009 OVC020
     FM300400 19004KT 5SM -SHSN SCT020 OVC035=



000
FTUS41 KPHI 290500 RRA
TAFACY
TAF
KACY 290546Z 2906/3006 34007KT P6SM SKC
     FM290900 VRB03KT P6SM SKC
     FM291800 15006KT P6SM BKN100
     FM300200 17008KT 6SM -RA SCT020 OVC040
     FM300500 19010KT P6SM FEW020 OVC030=



000
FTUS41 KPHI 290500 RRA
TAFTTN
TAF
KTTN 290546Z 2906/3006 VRB04KT P6SM SKC
     FM291700 15006KT P6SM BKN100
     FM300100 16006KT 3SM -SN OVC040
     FM300200 17006KT 1 1/2SM -SN SCT009 OVC020
     FM300500 17005KT 5SM -SHSN FEW009 OVC025=



000
FTUS41 KPHI 290500 RRA
TAFILG
TAF
KILG 290546Z 2906/3006 VRB03KT P6SM SKC
     FM291700 15008KT P6SM BKN100
     FM300100 17008KT 5SM -SNPL OVC040
     FM300200 17007KT 3SM -SNRA SCT015 OVC030
     FM300500 19006KT P6SM FEW020 OVC030=



000
FTUS41 KPHI 290500 RRA
TAFPHL
TAF
KPHL 290546Z 2906/3012 VRB04KT P6SM SKC
     FM291700 15007KT P6SM BKN100
     FM300100 17008KT 4SM -SN OVC040
     FM300200 18007KT 2SM -SN FEW010 OVC020
     FM300500 20006KT 5SM -SHSN FEW010 OVC025
     FM300700 25009KT P6SM SCT025 OVC060=



000
FTUS41 KPHI 290200 AAA
TAFABE
TAF AMD
KABE 290257Z 2903/2924 33006KT P6SM SKC
     FM290600 VRB03KT P6SM SKC
     FM291600 12006KT P6SM BKN100
     FM292300 13006KT P6SM OVC040=



000
FTUS41 KPHI 290200 AAA
TAFMIV
TAF AMD
KMIV 290257Z 2903/2924 32006KT P6SM SKC
     FM290600 VRB03KT P6SM SKC
     FM291800 14004KT P6SM BKN100=



000
FTUS41 KPHI 290200 AAA
TAFTTN
TAF AMD
KTTN 290257Z 2903/2924 34006KT P6SM SKC
     FM290600 VRB03KT P6SM SKC
     FM291700 14006KT P6SM BKN100=



000
FTUS41 KPHI 290200 AAA
TAFACY
TAF AMD
KACY 290257Z 2903/2924 33008KT P6SM SKC
     FM290600 VRB03KT P6SM SKC
     FM291800 15006KT P6SM BKN100=



000
FTUS41 KPHI 290200 AAA
TAFPNE
TAF AMD
KPNE 290257Z 2903/2924 33006KT P6SM SKC
     FM290600 VRB03KT P6SM SKC
     FM291700 15006KT P6SM BKN100=



000
FTUS41 KPHI 290200 AAA
TAFRDG
TAF AMD
KRDG 290257Z 2903/2924 32006KT P6SM SKC
     FM290600 VRB03KT P6SM SKC
     FM291600 15004KT P6SM BKN100
     FM292200 16004KT P6SM OVC040=



000
FTUS41 KPHI 290200 AAA
TAFPHL
TAF AMD
KPHL 290257Z 2903/3006 32008KT P6SM SKC
     FM290600 35006KT P6SM SKC
     FM291000 VRB03KT P6SM SKC
     FM291700 15006KT P6SM BKN100
     FM300300 19006KT P6SM -SHSN OVC040=



000
FTUS41 KPHI 290200 AAA
TAFILG
TAF AMD
KILG 290257Z 2903/2924 32006KT P6SM SKC
     FM290600 VRB03KT P6SM SKC
     FM291700 15008KT P6SM BKN100=



000
FTUS41 KPHI 282300
TAFTTN
TAF
KTTN 282324Z 2900/2924 34006KT P6SM SKC
     FM290400 VRB03KT P6SM SKC
     FM291700 14006KT P6SM BKN100=



000
FTUS41 KPHI 282300
TAFPNE
TAF
KPNE 282324Z 2900/2924 33006KT P6SM SKC
     FM290400 VRB03KT P6SM SKC
     FM291700 15006KT P6SM BKN100=



000
FTUS41 KPHI 282300
TAFPHL
TAF
KPHL 282324Z 2900/3006 32008KT P6SM SKC
     FM290400 35006KT P6SM SKC
     FM291000 VRB03KT P6SM SKC
     FM291700 15006KT P6SM BKN100
     FM300300 19006KT P6SM -SHSN OVC040=



000
FTUS41 KPHI 282300
TAFMIV
TAF
KMIV 282324Z 2900/2924 32006KT P6SM SKC
     FM290400 VRB03KT P6SM SKC
     FM291800 14004KT P6SM BKN100=



000
FTUS41 KPHI 282300
TAFRDG
TAF
KRDG 282324Z 2900/2924 32006KT P6SM SKC
     FM290400 VRB03KT P6SM SKC
     FM291600 15004KT P6SM BKN100
     FM292200 16004KT P6SM OVC040=



000
FTUS41 KPHI 282300
TAFILG
TAF
KILG 282324Z 2900/2924 32006KT P6SM SKC
     FM290400 VRB03KT P6SM SKC
     FM291700 15008KT P6SM BKN100=



000
FTUS41 KPHI 282300
TAFABE
TAF
KABE 282324Z 2900/2924 33006KT P6SM SKC
     FM290400 VRB03KT P6SM SKC
     FM291600 12006KT P6SM BKN100
     FM292300 13006KT P6SM OVC040=



000
FTUS41 KPHI 282300
TAFACY
TAF
KACY 282324Z 2900/2924 33008KT P6SM SKC
     FM290400 VRB03KT P6SM SKC
     FM291800 15006KT P6SM BKN100=



000
FTUS41 KPHI 282000 AAA
TAFPHL
TAF AMD
KPHL 282058Z 2821/2924 32012G20KT P6SM SKC
     FM282200 32011KT P6SM SKC
     FM290600 VRB04KT P6SM SCT250
     FM291600 12005KT P6SM BKN100 OVC200
     FM292300 16007KT P6SM BKN050=



000
FTUS41 KPHI 281700
TAFTTN
TAF
KTTN 281726Z 2818/2918 32011G20KT P6SM SKC
     FM282100 33010KT P6SM SKC
     FM290500 VRB03KT P6SM SCT250
     FM291600 13005KT P6SM BKN100 OVC200=



000
FTUS41 KPHI 281700
TAFACY
TAF
KACY 281726Z 2818/2918 33015G25KT P6SM SKC
     FM282200 32012KT P6SM SKC
     FM290500 33005KT P6SM SKC
     FM291700 14005KT P6SM BKN100 OVC200=



000
FTUS41 KPHI 281700
TAFMIV
TAF
KMIV 281726Z 2818/2918 34014G22KT P6SM SKC
     FM282200 32012KT P6SM SKC
     FM290400 VRB03KT P6SM SCT250
     FM291700 15005KT P6SM BKN100 OVC200=



000
FTUS41 KPHI 281700
TAFRDG
TAF
KRDG 281726Z 2818/2918 32012G20KT P6SM SKC
     FM282000 31010KT P6SM SKC
     FM290300 VRB02KT P6SM BKN250
     FM291600 13005KT P6SM BKN100 OVC200=



000
FTUS41 KPHI 281700
TAFPHL
TAF
KPHL 281726Z 2818/2924 32015G24KT P6SM SKC
     FM282200 32011KT P6SM SKC
     FM290600 VRB04KT P6SM SCT250
     FM291600 12005KT P6SM BKN100 OVC200
     FM292300 16007KT P6SM BKN050=



000
FTUS41 KPHI 281700
TAFILG
TAF
KILG 281726Z 2818/2918 33015G24KT P6SM SKC
     FM282200 32011KT P6SM SKC
     FM290600 VRB03KT P6SM SCT250
     FM291600 14005KT P6SM BKN100 OVC200=



000
FTUS41 KPHI 281700
TAFPNE
TAF
KPNE 281726Z 2818/2918 32012G20KT P6SM SKC
     FM282100 32010KT P6SM SKC
     FM290600 VRB03KT P6SM SCT250
     FM291600 11005KT P6SM BKN100 OVC200=



000
FTUS41 KPHI 281700
TAFABE
TAF
KABE 281726Z 2818/2918 31011G19KT P6SM SKC
     FM282000 32009KT P6SM SKC
     FM290400 VRB02KT P6SM SCT250
     FM291600 12005KT P6SM BKN100 OVC200=



000
FTUS41 KPHI 281500 AAA
TAFPHL
TAF AMD
KPHL 281500Z 2815/2918 32015G24KT P6SM FEW250
     FM282200 32011KT P6SM SKC
     FM290600 VRB03KT P6SM SCT250
     FM291500 11005KT P6SM BKN100 OVC200=



000
FTUS41 KPHI 281100
TAFACY
TAF
KACY 281134Z 2812/2912 31012KT P6SM FEW250
     FM281400 33013G22KT P6SM SKC
     FM282200 32012KT P6SM SKC
     FM290500 33005KT P6SM SKC=



000
FTUS41 KPHI 281100
TAFPHL
TAF
KPHL 281134Z 2812/2918 32014G22KT P6SM FEW250
     FM282200 32011KT P6SM SKC
     FM290600 VRB03KT P6SM SCT250
     FM291500 11005KT P6SM BKN100 OVC200=



000
FTUS41 KPHI 281100
TAFPNE
TAF
KPNE 281134Z 2812/2912 32012G20KT P6SM FEW250
     FM282100 32010KT P6SM SKC
     FM290600 VRB03KT P6SM SCT250=



000
FTUS41 KPHI 281100
TAFILG
TAF
KILG 281134Z 2812/2912 33014G22KT P6SM FEW250
     FM282200 32011KT P6SM SKC
     FM290600 VRB03KT P6SM SCT250=



000
FTUS41 KPHI 281100
TAFMIV
TAF
KMIV 281134Z 2812/2912 34013G20KT P6SM FEW250
     FM282200 32012KT P6SM SKC
     FM290400 VRB03KT P6SM SCT250=



000
FTUS41 KPHI 281100
TAFTTN
TAF
KTTN 281134Z 2812/2912 32008KT P6SM SKC
     FM281400 32011G19KT P6SM SCT200
     FM282100 33010KT P6SM SKC
     FM290500 VRB03KT P6SM SCT250=



000
FTUS41 KPHI 281100
TAFRDG
TAF
KRDG 281134Z 2812/2912 32012G20KT P6SM SKC
     FM282000 31010KT P6SM SKC
     FM290300 00000KT P6SM BKN250=



000
FTUS41 KPHI 281100
TAFABE
TAF
KABE 281134Z 2812/2912 31011G19KT P6SM SKC
     FM282000 32009KT P6SM SKC
     FM290400 00000KT P6SM SCT250=



000
FTUS41 KPHI 280900 AAA
TAFPHL
TAF AMD
KPHL 280900Z 2809/2912 32009KT P6SM FEW250
     FM281400 32015G22KT P6SM FEW250
     FM282100 32012KT P6SM SKC
     FM290500 VRB03KT P6SM SKC=



000
FTUS41 KPHI 280900 AAA
TAFPHL
TAF AMD
KPHL 280900Z 2809/2912 32009KT P6SM FEW250
     FM281400 32015G22KT P6SM FEW250
     FM282100 32012KT P6SM SKC
     FM290500 VRB03KT P6SM SKC=



000
FTUS41 KPHI 280500
TAFRDG
TAF
KRDG 280540Z 2806/2906 33014KT P6SM BKN250
     FM281300 32012G20KT P6SM SCT200
     FM281900 31010KT P6SM SKC
     FM290300 00000KT P6SM SKC=



000
FTUS41 KPHI 280500
TAFILG
TAF
KILG 280540Z 2806/2906 33015G23KT P6SM SCT250
     FM282100 32012KT P6SM SKC
     FM290500 VRB03KT P6SM SKC=



000
FTUS41 KPHI 280500
TAFTTN
TAF
KTTN 280540Z 2806/2906 32008KT P6SM SCT250
     FM281300 34011G19KT P6SM SCT200
     FM282100 35010KT P6SM SKC
     FM290500 VRB03KT P6SM SKC=



000
FTUS41 KPHI 280500
TAFACY
TAF
KACY 280540Z 2806/2906 33012G23KT P6SM SCT250
     FM282200 32012KT P6SM SKC
     FM290400 33005KT P6SM SKC=



000
FTUS41 KPHI 280500
TAFABE
TAF
KABE 280540Z 2806/2906 33010KT P6SM SCT250
     FM281300 32010G20KT P6SM SCT200
     FM282000 32010KT P6SM SKC
     FM290400 00000KT P6SM SKC=



000
FTUS41 KPHI 280500
TAFMIV
TAF
KMIV 280540Z 2806/2906 34014G22KT P6SM SCT250
     FM282200 32012KT P6SM SKC
     FM290500 VRB03KT P6SM SKC=



000
FTUS41 KPHI 280500
TAFPNE
TAF
KPNE 280540Z 2806/2906 32011KT P6SM BKN250
     FM281300 32011G19KT P6SM SCT200
     FM282100 32010KT P6SM SKC
     FM290500 VRB03KT P6SM SKC=



000
FTUS41 KPHI 280500
TAFPHL
TAF
KPHL 280540Z 2806/2912 33015G22KT P6SM SCT250
     FM282100 32012KT P6SM SKC
     FM290500 VRB03KT P6SM SKC=



000
FTUS41 KPHI 280100 AAA
TAFRDG
TAF AMD
KRDG 280101Z 2801/2824 33018G24KT P6SM SCT040 BKN200
     FM280600 32015KT P6SM SCT025 BKN200
     FM281400 32012G22KT P6SM SCT200
     FM282200 32010KT P6SM SKC=



000
FTUS41 KPHI 280100 AAA
TAFTTN
TAF AMD
KTTN 280101Z 2801/2824 34012G20KT P6SM SCT040 BKN200
     FM280600 33012KT P6SM SCT025 BKN200
     FM281400 35013G23KT P6SM SCT200
     FM282200 35010KT P6SM SKC=



000
FTUS41 KPHI 280100 AAA
TAFPNE
TAF AMD
KPNE 280101Z 2801/2824 33015G22KT P6SM SCT040 BKN200
     FM280600 33012KT P6SM SCT025 BKN200
     FM281400 33012G22KT P6SM SCT200
     FM282300 33012KT P6SM SKC=



000
FTUS41 KPHI 280100 AAA
TAFABE
TAF AMD
KABE 280101Z 2801/2824 33012G22KT P6SM SCT040 BKN200
     FM280600 33012KT P6SM SCT025 BKN200
     FM281400 33012G22KT P6SM SCT200
     FM282200 32010KT P6SM SKC=



000
FTUS41 KPHI 280100 AAA
TAFILG
TAF AMD
KILG 280101Z 2801/2824 32014G25KT P6SM SCT040 BKN200
     FM280600 32016KT P6SM SCT025 BKN200
     FM281400 33015G25KT P6SM SCT200
     FM282300 32013KT P6SM SKC=



000
FTUS41 KPHI 272300
TAFRDG
TAF
KRDG 272330Z 2800/2824 32015KT P6SM SCT025 BKN200
     FM281400 32012G22KT P6SM SCT200
     FM282200 32010KT P6SM SKC=



000
FTUS41 KPHI 272300
TAFPNE
TAF
KPNE 272330Z 2800/2824 33015G18KT P6SM SCT040 BKN200
     FM280300 33012KT P6SM SCT025 BKN200
     FM281400 33012G22KT P6SM SCT200
     FM282300 33012KT P6SM SKC=



000
FTUS41 KPHI 272300
TAFTTN
TAF
KTTN 272330Z 2800/2824 34012G16KT P6SM SCT040 BKN200
     FM280200 33012KT P6SM SCT025 BKN200
     FM281400 35013G23KT P6SM SCT200
     FM282200 35010KT P6SM SKC=



000
FTUS41 KPHI 272300
TAFPHL
TAF
KPHL 272330Z 2800/2906 32014KT P6SM SCT025 BKN200
     FM281400 33015G25KT P6SM SCT200
     FM282300 33012KT P6SM SKC=



000
FTUS41 KPHI 272300
TAFACY
TAF
KACY 272330Z 2800/2824 32012KT P6SM SCT040 BKN200
     FM281500 32015G25KT P6SM SCT200
     FM282300 33013KT P6SM SKC=



000
FTUS41 KPHI 272300
TAFABE
TAF
KABE 272330Z 2800/2824 33012KT P6SM SCT025 BKN200
     FM281400 33012G22KT P6SM SCT200
     FM282200 32010KT P6SM SKC=



000
FTUS41 KPHI 272300
TAFILG
TAF
KILG 272330Z 2800/2824 32016KT P6SM SCT025 BKN200
     FM281400 33015G25KT P6SM SCT200
     FM282300 32013KT P6SM SKC=



000
FTUS41 KPHI 272300
TAFMIV
TAF
KMIV 272330Z 2800/2824 30010G18KT P6SM SCT035 BKN200
     FM280200 31012KT P6SM SCT025 BKN200
     FM281500 32015G25KT P6SM SCT200
     FM282300 32013KT P6SM SKC=



    US Dept of Commerce
    National Oceanic and Atmospheric Administration
    National Weather Service
    1325 East West Highway
    Silver Spring, MD 20910
    Page Author: NWS Internet Services Team
Disclaimer
Information Quality
Credits
Glossary
Privacy Policy
Freedom of Information Act (FOIA)
About Us
Career Opportunities